sensor_id;sensor_type;location;lat;lon;timestamp;P1;durP1;ratioP1;P2;durP2;ratioP2
20423;SDS011;10371;49.042;8.002;2023-11-18T00:00:00;4.60;;;4.23;;
20423;SDS011;10371;49.042;8.002;2023-11-18T00:01:00;4.37;;;4.07;;
20423;SDS011;10371;49.042;8.002;2023-11-18T00:02:01;5.07;;;4.57;;
20423;SDS011;10371;49.042;8.002;2023-11-18T00:03:01;5.00;;;4.60;;
20423;SDS011;10371;49.042;8.002;2023-11-18T00:04:01;4.97;;;4.50;;
20423;SDS011;10371;49.042;8.002;2023-11-18T00:05:02;4.77;;;4.37;;
20423;SDS011;10371;49.042;8.002;2023-11-18T00:06:02;4.30;;;4.00;;
20423;SDS011;10371;49.042;8.002;2023-11-18T00:07:03;5.27;;;4.87;;
20423;SDS011;10371;49.042;8.002;2023-11-18T00:08:04;5.13;;;4.73;;
20423;SDS011;10371;49.042;8.002;2023-11-18T00:09:04;5.30;;;4.90;;
20423;SDS011;10371;49.042;8.002;2023-11-18T00:10:06;5.97;;;5.00;;
20423;SDS011;10371;49.042;8.002;2023-11-18T00:11:08;5.40;;;4.93;;
20423;SDS011;10371;49.042;8.002;2023-11-18T00:12:11;5.57;;;5.07;;
20423;SDS011;10371;49.042;8.002;2023-11-18T00:13:12;5.07;;;4.67;;
20423;SDS011;10371;49.042;8.002;2023-11-18T00:14:12;5.30;;;4.90;;
20423;SDS011;10371;49.042;8.002;2023-11-18T00:15:13;5.47;;;5.07;;
20423;SDS011;10371;49.042;8.002;2023-11-18T00:16:13;5.33;;;4.93;;
20423;SDS011;10371;49.042;8.002;2023-11-18T00:17:15;5.63;;;5.20;;
20423;SDS011;10371;49.042;8.002;2023-11-18T00:18:16;5.40;;;5.00;;
20423;SDS011;10371;49.042;8.002;2023-11-18T00:19:16;5.50;;;5.10;;
20423;SDS011;10371;49.042;8.002;2023-11-18T00:20:17;5.50;;;4.97;;
20423;SDS011;10371;49.042;8.002;2023-11-18T00:21:18;5.20;;;4.80;;
20423;SDS011;10371;49.042;8.002;2023-11-18T00:22:18;5.50;;;5.10;;
20423;SDS011;10371;49.042;8.002;2023-11-18T00:23:19;5.53;;;5.10;;
20423;SDS011;10371;49.042;8.002;2023-11-18T00:24:19;6.50;;;5.97;;
20423;SDS011;10371;49.042;8.002;2023-11-18T00:25:20;5.53;;;5.03;;
20423;SDS011;10371;49.042;8.002;2023-11-18T00:26:20;5.37;;;4.97;;
20423;SDS011;10371;49.042;8.002;2023-11-18T00:27:20;5.80;;;5.30;;
20423;SDS011;10371;49.042;8.002;2023-11-18T00:28:22;5.80;;;5.30;;
20423;SDS011;10371;49.042;8.002;2023-11-18T00:29:23;7.53;;;5.87;;
20423;SDS011;10371;49.042;8.002;2023-11-18T00:30:23;5.87;;;5.37;;
20423;SDS011;10371;49.042;8.002;2023-11-18T00:31:23;6.13;;;5.63;;
20423;SDS011;10371;49.042;8.002;2023-11-18T00:32:24;6.40;;;5.80;;
20423;SDS011;10371;49.042;8.002;2023-11-18T00:33:25;6.30;;;5.80;;
20423;SDS011;10371;49.042;8.002;2023-11-18T00:34:25;6.63;;;5.93;;
20423;SDS011;10371;49.042;8.002;2023-11-18T00:35:25;6.67;;;5.90;;
20423;SDS011;10371;49.042;8.002;2023-11-18T00:36:25;6.47;;;5.97;;
20423;SDS011;10371;49.042;8.002;2023-11-18T00:37:26;7.07;;;6.47;;
20423;SDS011;10371;49.042;8.002;2023-11-18T00:38:27;6.93;;;6.33;;
20423;SDS011;10371;49.042;8.002;2023-11-18T00:39:27;6.90;;;6.30;;
20423;SDS011;10371;49.042;8.002;2023-11-18T00:40:27;6.80;;;6.20;;
20423;SDS011;10371;49.042;8.002;2023-11-18T00:41:29;6.90;;;6.30;;
20423;SDS011;10371;49.042;8.002;2023-11-18T00:42:29;7.53;;;6.83;;
20423;SDS011;10371;49.042;8.002;2023-11-18T00:43:30;7.83;;;7.23;;
20423;SDS011;10371;49.042;8.002;2023-11-18T00:44:31;7.43;;;6.83;;
20423;SDS011;10371;49.042;8.002;2023-11-18T00:45:31;8.10;;;7.40;;
20423;SDS011;10371;49.042;8.002;2023-11-18T00:46:32;7.80;;;7.10;;
20423;SDS011;10371;49.042;8.002;2023-11-18T00:47:35;8.10;;;7.40;;
20423;SDS011;10371;49.042;8.002;2023-11-18T00:48:36;7.27;;;6.57;;
20423;SDS011;10371;49.042;8.002;2023-11-18T00:49:36;7.40;;;6.80;;
20423;SDS011;10371;49.042;8.002;2023-11-18T00:50:37;7.47;;;6.87;;
20423;SDS011;10371;49.042;8.002;2023-11-18T00:51:37;9.10;;;8.30;;
20423;SDS011;10371;49.042;8.002;2023-11-18T00:52:38;8.33;;;7.63;;
20423;SDS011;10371;49.042;8.002;2023-11-18T00:53:41;7.40;;;6.80;;
20423;SDS011;10371;49.042;8.002;2023-11-18T00:54:41;8.47;;;7.57;;
20423;SDS011;10371;49.042;8.002;2023-11-18T00:55:41;8.07;;;7.30;;
20423;SDS011;10371;49.042;8.002;2023-11-18T00:56:41;7.47;;;6.90;;
20423;SDS011;10371;49.042;8.002;2023-11-18T00:57:42;7.50;;;6.90;;
20423;SDS011;10371;49.042;8.002;2023-11-18T00:58:42;7.43;;;6.73;;
20423;SDS011;10371;49.042;8.002;2023-11-18T00:59:42;7.10;;;6.50;;
20423;SDS011;10371;49.042;8.002;2023-11-18T01:00:43;7.40;;;6.80;;
20423;SDS011;10371;49.042;8.002;2023-11-18T01:01:44;7.10;;;6.43;;
20423;SDS011;10371;49.042;8.002;2023-11-18T01:02:44;6.77;;;6.27;;
20423;SDS011;10371;49.042;8.002;2023-11-18T01:03:46;7.90;;;7.10;;
20423;SDS011;10371;49.042;8.002;2023-11-18T01:04:47;7.40;;;6.70;;
20423;SDS011;10371;49.042;8.002;2023-11-18T01:05:47;8.87;;;7.50;;
20423;SDS011;10371;49.042;8.002;2023-11-18T01:06:48;8.60;;;7.70;;
20423;SDS011;10371;49.042;8.002;2023-11-18T01:07:48;7.43;;;6.63;;
20423;SDS011;10371;49.042;8.002;2023-11-18T01:08:49;7.20;;;6.60;;
20423;SDS011;10371;49.042;8.002;2023-11-18T01:09:49;7.23;;;6.63;;
20423;SDS011;10371;49.042;8.002;2023-11-18T01:10:50;6.73;;;6.13;;
20423;SDS011;10371;49.042;8.002;2023-11-18T01:11:50;6.93;;;6.33;;
20423;SDS011;10371;49.042;8.002;2023-11-18T01:12:50;6.87;;;6.37;;
20423;SDS011;10371;49.042;8.002;2023-11-18T01:13:51;6.97;;;6.30;;
20423;SDS011;10371;49.042;8.002;2023-11-18T01:14:51;6.47;;;5.97;;
20423;SDS011;10371;49.042;8.002;2023-11-18T01:15:51;6.33;;;5.83;;
20423;SDS011;10371;49.042;8.002;2023-11-18T01:16:52;6.67;;;6.00;;
20423;SDS011;10371;49.042;8.002;2023-11-18T01:17:52;6.73;;;6.13;;
20423;SDS011;10371;49.042;8.002;2023-11-18T01:18:52;6.30;;;5.70;;
20423;SDS011;10371;49.042;8.002;2023-11-18T01:19:54;6.80;;;6.20;;
20423;SDS011;10371;49.042;8.002;2023-11-18T01:20:55;6.63;;;6.03;;
20423;SDS011;10371;49.042;8.002;2023-11-18T01:21:55;7.17;;;6.43;;
20423;SDS011;10371;49.042;8.002;2023-11-18T01:22:55;8.90;;;8.10;;
20423;SDS011;10371;49.042;8.002;2023-11-18T01:23:56;9.00;;;8.20;;
20423;SDS011;10371;49.042;8.002;2023-11-18T01:24:56;8.83;;;8.03;;
20423;SDS011;10371;49.042;8.002;2023-11-18T01:25:58;8.63;;;7.80;;
20423;SDS011;10371;49.042;8.002;2023-11-18T01:26:58;8.47;;;7.73;;
20423;SDS011;10371;49.042;8.002;2023-11-18T01:28:01;8.07;;;7.37;;
20423;SDS011;10371;49.042;8.002;2023-11-18T01:29:03;8.20;;;7.60;;
20423;SDS011;10371;49.042;8.002;2023-11-18T01:30:04;7.70;;;7.07;;
20423;SDS011;10371;49.042;8.002;2023-11-18T01:31:05;8.07;;;7.30;;
20423;SDS011;10371;49.042;8.002;2023-11-18T01:32:09;8.27;;;7.40;;
20423;SDS011;10371;49.042;8.002;2023-11-18T01:33:10;7.10;;;6.57;;
20423;SDS011;10371;49.042;8.002;2023-11-18T01:34:10;7.23;;;6.63;;
20423;SDS011;10371;49.042;8.002;2023-11-18T01:35:12;6.80;;;6.20;;
20423;SDS011;10371;49.042;8.002;2023-11-18T01:36:12;7.17;;;6.67;;
20423;SDS011;10371;49.042;8.002;2023-11-18T01:37:12;6.83;;;6.20;;
20423;SDS011;10371;49.042;8.002;2023-11-18T01:38:13;6.73;;;6.23;;
20423;SDS011;10371;49.042;8.002;2023-11-18T01:39:13;6.87;;;6.27;;
20423;SDS011;10371;49.042;8.002;2023-11-18T01:40:13;7.17;;;6.57;;
20423;SDS011;10371;49.042;8.002;2023-11-18T01:41:15;6.43;;;5.93;;
20423;SDS011;10371;49.042;8.002;2023-11-18T01:42:15;7.93;;;7.17;;
20423;SDS011;10371;49.042;8.002;2023-11-18T01:43:16;8.30;;;7.60;;
20423;SDS011;10371;49.042;8.002;2023-11-18T01:44:16;9.17;;;8.37;;
20423;SDS011;10371;49.042;8.002;2023-11-18T01:45:19;8.73;;;7.93;;
20423;SDS011;10371;49.042;8.002;2023-11-18T01:46:19;8.17;;;7.47;;
20423;SDS011;10371;49.042;8.002;2023-11-18T01:47:21;8.13;;;7.40;;
20423;SDS011;10371;49.042;8.002;2023-11-18T01:48:22;7.23;;;6.60;;
20423;SDS011;10371;49.042;8.002;2023-11-18T01:49:23;7.87;;;7.27;;
20423;SDS011;10371;49.042;8.002;2023-11-18T01:50:24;8.20;;;7.50;;
20423;SDS011;10371;49.042;8.002;2023-11-18T01:51:24;8.13;;;7.33;;
20423;SDS011;10371;49.042;8.002;2023-11-18T01:52:27;7.90;;;7.20;;
20423;SDS011;10371;49.042;8.002;2023-11-18T01:53:30;7.50;;;6.80;;
20423;SDS011;10371;49.042;8.002;2023-11-18T01:54:31;7.60;;;7.00;;
20423;SDS011;10371;49.042;8.002;2023-11-18T01:55:32;8.03;;;7.23;;
20423;SDS011;10371;49.042;8.002;2023-11-18T01:56:34;7.87;;;7.13;;
20423;SDS011;10371;49.042;8.002;2023-11-18T01:57:34;7.70;;;7.00;;
20423;SDS011;10371;49.042;8.002;2023-11-18T01:58:35;8.10;;;7.40;;
20423;SDS011;10371;49.042;8.002;2023-11-18T01:59:36;7.70;;;7.07;;
20423;SDS011;10371;49.042;8.002;2023-11-18T02:00:38;8.50;;;7.63;;
20423;SDS011;10371;49.042;8.002;2023-11-18T02:01:42;8.40;;;7.70;;
20423;SDS011;10371;49.042;8.002;2023-11-18T02:02:43;9.77;;;8.90;;
20423;SDS011;10371;49.042;8.002;2023-11-18T02:03:43;9.63;;;8.83;;
20423;SDS011;10371;49.042;8.002;2023-11-18T02:04:44;9.03;;;8.30;;
20423;SDS011;10371;49.042;8.002;2023-11-18T02:05:45;9.50;;;8.70;;
20423;SDS011;10371;49.042;8.002;2023-11-18T02:06:45;10.63;;;9.53;;
20423;SDS011;10371;49.042;8.002;2023-11-18T02:07:48;11.57;;;10.37;;
20423;SDS011;10371;49.042;8.002;2023-11-18T02:08:48;10.53;;;9.53;;
20423;SDS011;10371;49.042;8.002;2023-11-18T02:09:49;8.80;;;8.00;;
20423;SDS011;10371;49.042;8.002;2023-11-18T02:10:53;7.97;;;7.27;;
20423;SDS011;10371;49.042;8.002;2023-11-18T02:13:23;8.37;;;7.67;;
20423;SDS011;10371;49.042;8.002;2023-11-18T02:14:28;8.70;;;8.00;;
20423;SDS011;10371;49.042;8.002;2023-11-18T02:15:30;8.17;;;7.40;;
20423;SDS011;10371;49.042;8.002;2023-11-18T02:16:31;8.47;;;7.80;;
20423;SDS011;10371;49.042;8.002;2023-11-18T02:17:32;7.93;;;7.33;;
20423;SDS011;10371;49.042;8.002;2023-11-18T02:18:34;8.30;;;7.60;;
20423;SDS011;10371;49.042;8.002;2023-11-18T02:19:39;8.57;;;7.87;;
20423;SDS011;10371;49.042;8.002;2023-11-18T02:20:40;8.93;;;8.20;;
20423;SDS011;10371;49.042;8.002;2023-11-18T02:21:41;8.40;;;7.70;;
20423;SDS011;10371;49.042;8.002;2023-11-18T02:22:43;8.57;;;7.80;;
20423;SDS011;10371;49.042;8.002;2023-11-18T02:23:47;8.80;;;7.67;;
20423;SDS011;10371;49.042;8.002;2023-11-18T02:24:48;7.87;;;7.20;;
20423;SDS011;10371;49.042;8.002;2023-11-18T02:25:49;8.60;;;7.40;;
20423;SDS011;10371;49.042;8.002;2023-11-18T02:26:49;7.93;;;7.33;;
20423;SDS011;10371;49.042;8.002;2023-11-18T02:27:50;7.40;;;6.80;;
20423;SDS011;10371;49.042;8.002;2023-11-18T02:28:50;8.20;;;7.23;;
20423;SDS011;10371;49.042;8.002;2023-11-18T02:29:52;11.73;;;7.37;;
20423;SDS011;10371;49.042;8.002;2023-11-18T02:30:54;10.07;;;6.47;;
20423;SDS011;10371;49.042;8.002;2023-11-18T02:32:02;7.40;;;6.70;;
20423;SDS011;10371;49.042;8.002;2023-11-18T02:33:34;8.60;;;7.90;;
20423;SDS011;10371;49.042;8.002;2023-11-18T02:34:40;8.83;;;8.13;;
20423;SDS011;10371;49.042;8.002;2023-11-18T02:35:51;8.93;;;8.10;;
20423;SDS011;10371;49.042;8.002;2023-11-18T02:36:57;8.83;;;7.87;;
20423;SDS011;10371;49.042;8.002;2023-11-18T02:38:01;7.57;;;6.90;;
20423;SDS011;10371;49.042;8.002;2023-11-18T02:39:04;7.10;;;6.53;;
20423;SDS011;10371;49.042;8.002;2023-11-18T02:40:09;6.90;;;6.20;;
20423;SDS011;10371;49.042;8.002;2023-11-18T02:41:14;7.20;;;6.10;;
20423;SDS011;10371;49.042;8.002;2023-11-18T02:42:18;6.40;;;5.80;;
20423;SDS011;10371;49.042;8.002;2023-11-18T02:43:21;10.77;;;5.60;;
20423;SDS011;10371;49.042;8.002;2023-11-18T02:44:24;6.60;;;6.00;;
20423;SDS011;10371;49.042;8.002;2023-11-18T02:45:25;6.63;;;6.13;;
20423;SDS011;10371;49.042;8.002;2023-11-18T02:46:27;8.67;;;6.23;;
20423;SDS011;10371;49.042;8.002;2023-11-18T02:47:27;6.53;;;5.93;;
20423;SDS011;10371;49.042;8.002;2023-11-18T02:48:28;7.50;;;6.90;;
20423;SDS011;10371;49.042;8.002;2023-11-18T02:49:29;7.27;;;6.67;;
20423;SDS011;10371;49.042;8.002;2023-11-18T02:50:29;7.53;;;6.83;;
20423;SDS011;10371;49.042;8.002;2023-11-18T02:51:30;7.63;;;6.93;;
20423;SDS011;10371;49.042;8.002;2023-11-18T02:52:41;7.10;;;6.50;;
20423;SDS011;10371;49.042;8.002;2023-11-18T02:53:42;7.37;;;6.77;;
20423;SDS011;10371;49.042;8.002;2023-11-18T02:54:44;7.80;;;7.13;;
20423;SDS011;10371;49.042;8.002;2023-11-18T02:55:45;7.50;;;6.90;;
20423;SDS011;10371;49.042;8.002;2023-11-18T02:56:46;7.50;;;6.90;;
20423;SDS011;10371;49.042;8.002;2023-11-18T02:57:46;7.33;;;6.63;;
20423;SDS011;10371;49.042;8.002;2023-11-18T02:58:47;8.33;;;7.60;;
20423;SDS011;10371;49.042;8.002;2023-11-18T02:59:47;8.50;;;7.60;;
20423;SDS011;10371;49.042;8.002;2023-11-18T03:00:47;8.30;;;7.60;;
20423;SDS011;10371;49.042;8.002;2023-11-18T03:01:48;9.10;;;8.30;;
20423;SDS011;10371;49.042;8.002;2023-11-18T03:02:48;9.07;;;8.30;;
20423;SDS011;10371;49.042;8.002;2023-11-18T03:03:51;8.17;;;7.47;;
20423;SDS011;10371;49.042;8.002;2023-11-18T03:04:51;8.23;;;7.53;;
20423;SDS011;10371;49.042;8.002;2023-11-18T03:05:51;7.57;;;6.87;;
20423;SDS011;10371;49.042;8.002;2023-11-18T03:06:52;7.17;;;6.47;;
20423;SDS011;10371;49.042;8.002;2023-11-18T03:07:52;6.90;;;6.30;;
20423;SDS011;10371;49.042;8.002;2023-11-18T03:08:54;7.47;;;6.87;;
20423;SDS011;10371;49.042;8.002;2023-11-18T03:09:54;8.27;;;7.57;;
20423;SDS011;10371;49.042;8.002;2023-11-18T03:10:59;8.97;;;8.07;;
20423;SDS011;10371;49.042;8.002;2023-11-18T03:12:00;9.20;;;8.40;;
20423;SDS011;10371;49.042;8.002;2023-11-18T03:13:00;10.73;;;9.63;;
20423;SDS011;10371;49.042;8.002;2023-11-18T03:14:01;11.03;;;9.93;;
20423;SDS011;10371;49.042;8.002;2023-11-18T03:15:01;10.83;;;9.80;;
20423;SDS011;10371;49.042;8.002;2023-11-18T03:16:06;10.33;;;9.33;;
20423;SDS011;10371;49.042;8.002;2023-11-18T03:17:07;11.67;;;10.43;;
20423;SDS011;10371;49.042;8.002;2023-11-18T03:18:09;12.00;;;10.80;;
20423;SDS011;10371;49.042;8.002;2023-11-18T03:19:09;13.30;;;11.97;;
20423;SDS011;10371;49.042;8.002;2023-11-18T03:20:10;12.23;;;11.10;;
20423;SDS011;10371;49.042;8.002;2023-11-18T03:21:14;12.97;;;11.67;;
20423;SDS011;10371;49.042;8.002;2023-11-18T03:22:14;14.40;;;12.10;;
20423;SDS011;10371;49.042;8.002;2023-11-18T03:23:15;14.13;;;12.63;;
20423;SDS011;10371;49.042;8.002;2023-11-18T03:24:15;14.43;;;12.57;;
20423;SDS011;10371;49.042;8.002;2023-11-18T03:25:16;15.17;;;12.93;;
20423;SDS011;10371;49.042;8.002;2023-11-18T03:26:17;13.87;;;12.57;;
20423;SDS011;10371;49.042;8.002;2023-11-18T03:27:19;14.70;;;13.30;;
20423;SDS011;10371;49.042;8.002;2023-11-18T03:28:19;14.83;;;12.73;;
20423;SDS011;10371;49.042;8.002;2023-11-18T03:29:20;13.87;;;12.57;;
20423;SDS011;10371;49.042;8.002;2023-11-18T03:30:20;14.17;;;12.77;;
20423;SDS011;10371;49.042;8.002;2023-11-18T03:31:21;14.97;;;13.57;;
20423;SDS011;10371;49.042;8.002;2023-11-18T03:32:22;15.10;;;13.67;;
20423;SDS011;10371;49.042;8.002;2023-11-18T03:33:22;15.40;;;13.80;;
20423;SDS011;10371;49.042;8.002;2023-11-18T03:34:23;14.33;;;12.93;;
20423;SDS011;10371;49.042;8.002;2023-11-18T03:35:23;15.33;;;13.77;;
20423;SDS011;10371;49.042;8.002;2023-11-18T03:36:24;16.10;;;14.50;;
20423;SDS011;10371;49.042;8.002;2023-11-18T03:37:25;16.93;;;15.17;;
20423;SDS011;10371;49.042;8.002;2023-11-18T03:38:26;16.23;;;14.60;;
20423;SDS011;10371;49.042;8.002;2023-11-18T03:39:28;17.10;;;14.93;;
20423;SDS011;10371;49.042;8.002;2023-11-18T03:40:28;16.83;;;15.13;;
20423;SDS011;10371;49.042;8.002;2023-11-18T03:41:29;16.30;;;14.60;;
20423;SDS011;10371;49.042;8.002;2023-11-18T03:42:29;17.50;;;15.73;;
20423;SDS011;10371;49.042;8.002;2023-11-18T03:43:30;19.60;;;17.10;;
20423;SDS011;10371;49.042;8.002;2023-11-18T03:44:30;19.57;;;17.07;;
20423;SDS011;10371;49.042;8.002;2023-11-18T03:45:30;21.03;;;17.00;;
20423;SDS011;10371;49.042;8.002;2023-11-18T03:46:30;21.33;;;16.93;;
20423;SDS011;10371;49.042;8.002;2023-11-18T03:47:34;22.43;;;17.90;;
20423;SDS011;10371;49.042;8.002;2023-11-18T03:48:34;19.43;;;17.33;;
20423;SDS011;10371;49.042;8.002;2023-11-18T03:49:35;22.67;;;18.90;;
20423;SDS011;10371;49.042;8.002;2023-11-18T03:50:35;27.93;;;20.80;;
20423;SDS011;10371;49.042;8.002;2023-11-18T03:51:35;23.97;;;19.37;;
20423;SDS011;10371;49.042;8.002;2023-11-18T03:52:36;23.63;;;20.53;;
20423;SDS011;10371;49.042;8.002;2023-11-18T03:53:37;24.80;;;20.07;;
20423;SDS011;10371;49.042;8.002;2023-11-18T03:54:38;23.07;;;20.23;;
20423;SDS011;10371;49.042;8.002;2023-11-18T03:55:38;21.80;;;18.87;;
20423;SDS011;10371;49.042;8.002;2023-11-18T03:56:38;20.80;;;18.60;;
20423;SDS011;10371;49.042;8.002;2023-11-18T03:57:39;24.90;;;19.17;;
20423;SDS011;10371;49.042;8.002;2023-11-18T03:58:39;22.13;;;18.50;;
20423;SDS011;10371;49.042;8.002;2023-11-18T03:59:40;21.50;;;18.43;;
20423;SDS011;10371;49.042;8.002;2023-11-18T04:00:41;21.30;;;19.00;;
20423;SDS011;10371;49.042;8.002;2023-11-18T04:01:41;22.87;;;19.67;;
20423;SDS011;10371;49.042;8.002;2023-11-18T04:02:41;21.37;;;18.37;;
20423;SDS011;10371;49.042;8.002;2023-11-18T04:03:42;19.77;;;17.67;;
20423;SDS011;10371;49.042;8.002;2023-11-18T04:04:42;20.77;;;17.60;;
20423;SDS011;10371;49.042;8.002;2023-11-18T04:05:42;20.63;;;17.40;;
20423;SDS011;10371;49.042;8.002;2023-11-18T04:06:43;18.53;;;15.83;;
20423;SDS011;10371;49.042;8.002;2023-11-18T04:07:43;18.43;;;16.50;;
20423;SDS011;10371;49.042;8.002;2023-11-18T04:08:47;18.00;;;16.10;;
20423;SDS011;10371;49.042;8.002;2023-11-18T04:09:48;18.03;;;15.57;;
20423;SDS011;10371;49.042;8.002;2023-11-18T04:10:48;17.77;;;15.87;;
20423;SDS011;10371;49.042;8.002;2023-11-18T04:11:48;17.77;;;15.90;;
20423;SDS011;10371;49.042;8.002;2023-11-18T04:12:49;16.10;;;14.23;;
20423;SDS011;10371;49.042;8.002;2023-11-18T04:13:49;16.97;;;14.53;;
20423;SDS011;10371;49.042;8.002;2023-11-18T04:14:49;16.37;;;14.67;;
20423;SDS011;10371;49.042;8.002;2023-11-18T04:15:49;16.27;;;14.53;;
20423;SDS011;10371;49.042;8.002;2023-11-18T04:16:50;15.60;;;14.00;;
20423;SDS011;10371;49.042;8.002;2023-11-18T04:17:50;17.23;;;14.50;;
20423;SDS011;10371;49.042;8.002;2023-11-18T04:18:52;16.67;;;14.90;;
20423;SDS011;10371;49.042;8.002;2023-11-18T04:19:52;16.17;;;14.57;;
20423;SDS011;10371;49.042;8.002;2023-11-18T04:20:55;15.53;;;14.03;;
20423;SDS011;10371;49.042;8.002;2023-11-18T04:21:58;15.80;;;14.10;;
20423;SDS011;10371;49.042;8.002;2023-11-18T04:22:58;16.30;;;14.67;;
20423;SDS011;10371;49.042;8.002;2023-11-18T04:23:59;16.07;;;13.37;;
20423;SDS011;10371;49.042;8.002;2023-11-18T04:24:59;14.97;;;13.47;;
20423;SDS011;10371;49.042;8.002;2023-11-18T04:26:01;15.93;;;14.33;;
20423;SDS011;10371;49.042;8.002;2023-11-18T04:27:02;14.70;;;13.27;;
20423;SDS011;10371;49.042;8.002;2023-11-18T04:28:02;14.57;;;13.17;;
20423;SDS011;10371;49.042;8.002;2023-11-18T04:29:04;14.27;;;12.97;;
20423;SDS011;10371;49.042;8.002;2023-11-18T04:30:04;13.83;;;12.53;;
20423;SDS011;10371;49.042;8.002;2023-11-18T04:31:05;13.27;;;11.97;;
20423;SDS011;10371;49.042;8.002;2023-11-18T04:32:06;14.13;;;12.80;;
20423;SDS011;10371;49.042;8.002;2023-11-18T04:33:08;14.70;;;13.27;;
20423;SDS011;10371;49.042;8.002;2023-11-18T04:34:08;13.77;;;12.37;;
20423;SDS011;10371;49.042;8.002;2023-11-18T04:35:09;14.40;;;13.00;;
20423;SDS011;10371;49.042;8.002;2023-11-18T04:36:09;14.33;;;12.87;;
20423;SDS011;10371;49.042;8.002;2023-11-18T04:37:10;13.77;;;12.43;;
20423;SDS011;10371;49.042;8.002;2023-11-18T04:38:10;13.73;;;12.33;;
20423;SDS011;10371;49.042;8.002;2023-11-18T04:39:10;13.53;;;12.33;;
20423;SDS011;10371;49.042;8.002;2023-11-18T04:40:12;12.80;;;11.60;;
20423;SDS011;10371;49.042;8.002;2023-11-18T04:41:12;14.47;;;13.00;;
20423;SDS011;10371;49.042;8.002;2023-11-18T04:42:12;13.50;;;12.10;;
20423;SDS011;10371;49.042;8.002;2023-11-18T04:43:12;12.43;;;11.30;;
20423;SDS011;10371;49.042;8.002;2023-11-18T04:44:13;11.80;;;10.77;;
20423;SDS011;10371;49.042;8.002;2023-11-18T04:45:14;13.10;;;11.70;;
20423;SDS011;10371;49.042;8.002;2023-11-18T04:46:14;12.37;;;11.17;;
20423;SDS011;10371;49.042;8.002;2023-11-18T04:47:14;12.90;;;11.70;;
20423;SDS011;10371;49.042;8.002;2023-11-18T04:48:14;12.17;;;11.07;;
20423;SDS011;10371;49.042;8.002;2023-11-18T04:49:15;13.97;;;12.50;;
20423;SDS011;10371;49.042;8.002;2023-11-18T04:50:15;13.70;;;12.40;;
20423;SDS011;10371;49.042;8.002;2023-11-18T04:51:16;14.47;;;13.07;;
20423;SDS011;10371;49.042;8.002;2023-11-18T04:52:17;14.20;;;12.70;;
20423;SDS011;10371;49.042;8.002;2023-11-18T04:53:18;13.33;;;12.03;;
20423;SDS011;10371;49.042;8.002;2023-11-18T04:54:18;16.60;;;14.47;;
20423;SDS011;10371;49.042;8.002;2023-11-18T04:55:19;15.93;;;14.43;;
20423;SDS011;10371;49.042;8.002;2023-11-18T04:56:20;15.50;;;13.90;;
20423;SDS011;10371;49.042;8.002;2023-11-18T04:57:21;15.87;;;14.30;;
20423;SDS011;10371;49.042;8.002;2023-11-18T04:58:22;17.03;;;15.23;;
20423;SDS011;10371;49.042;8.002;2023-11-18T04:59:22;15.90;;;14.40;;
20423;SDS011;10371;49.042;8.002;2023-11-18T05:00:22;17.27;;;15.57;;
20423;SDS011;10371;49.042;8.002;2023-11-18T05:01:22;15.77;;;14.17;;
20423;SDS011;10371;49.042;8.002;2023-11-18T05:02:23;15.00;;;13.47;;
20423;SDS011;10371;49.042;8.002;2023-11-18T05:03:23;15.90;;;14.23;;
20423;SDS011;10371;49.042;8.002;2023-11-18T05:04:24;14.83;;;13.33;;
20423;SDS011;10371;49.042;8.002;2023-11-18T05:05:24;16.70;;;15.00;;
20423;SDS011;10371;49.042;8.002;2023-11-18T05:06:24;15.07;;;13.03;;
20423;SDS011;10371;49.042;8.002;2023-11-18T05:07:25;14.60;;;13.10;;
20423;SDS011;10371;49.042;8.002;2023-11-18T05:08:28;14.50;;;13.07;;
20423;SDS011;10371;49.042;8.002;2023-11-18T05:09:28;13.83;;;12.47;;
20423;SDS011;10371;49.042;8.002;2023-11-18T05:10:28;13.63;;;12.43;;
20423;SDS011;10371;49.042;8.002;2023-11-18T05:11:29;14.80;;;13.40;;
20423;SDS011;10371;49.042;8.002;2023-11-18T05:12:29;17.70;;;16.10;;
20423;SDS011;10371;49.042;8.002;2023-11-18T05:13:29;26.50;;;24.10;;
20423;SDS011;10371;49.042;8.002;2023-11-18T05:14:29;25.83;;;23.60;;
20423;SDS011;10371;49.042;8.002;2023-11-18T05:15:30;27.00;;;24.50;;
20423;SDS011;10371;49.042;8.002;2023-11-18T05:16:31;22.60;;;20.60;;
20423;SDS011;10371;49.042;8.002;2023-11-18T05:17:31;19.77;;;18.07;;
20423;SDS011;10371;49.042;8.002;2023-11-18T05:18:32;16.70;;;15.17;;
20423;SDS011;10371;49.042;8.002;2023-11-18T05:19:35;15.73;;;14.33;;
20423;SDS011;10371;49.042;8.002;2023-11-18T05:20:35;14.77;;;13.37;;
20423;SDS011;10371;49.042;8.002;2023-11-18T05:21:37;14.03;;;12.73;;
20423;SDS011;10371;49.042;8.002;2023-11-18T05:22:37;14.67;;;13.27;;
20423;SDS011;10371;49.042;8.002;2023-11-18T05:23:37;15.37;;;13.77;;
20423;SDS011;10371;49.042;8.002;2023-11-18T05:24:38;14.97;;;13.57;;
20423;SDS011;10371;49.042;8.002;2023-11-18T05:25:41;14.43;;;13.13;;
20423;SDS011;10371;49.042;8.002;2023-11-18T05:26:45;15.83;;;14.33;;
20423;SDS011;10371;49.042;8.002;2023-11-18T05:27:46;15.67;;;14.13;;
20423;SDS011;10371;49.042;8.002;2023-11-18T05:28:46;15.40;;;14.00;;
20423;SDS011;10371;49.042;8.002;2023-11-18T05:29:46;14.27;;;12.97;;
20423;SDS011;10371;49.042;8.002;2023-11-18T05:30:54;13.80;;;12.50;;
20423;SDS011;10371;49.042;8.002;2023-11-18T05:31:57;13.80;;;12.57;;
20423;SDS011;10371;49.042;8.002;2023-11-18T05:32:58;13.50;;;12.30;;
20423;SDS011;10371;49.042;8.002;2023-11-18T05:33:58;14.33;;;12.90;;
20423;SDS011;10371;49.042;8.002;2023-11-18T05:34:58;12.90;;;11.60;;
20423;SDS011;10371;49.042;8.002;2023-11-18T05:35:59;12.57;;;11.37;;
20423;SDS011;10371;49.042;8.002;2023-11-18T05:36:59;14.23;;;12.83;;
20423;SDS011;10371;49.042;8.002;2023-11-18T05:38:01;13.63;;;12.33;;
20423;SDS011;10371;49.042;8.002;2023-11-18T05:39:04;13.27;;;11.97;;
20423;SDS011;10371;49.042;8.002;2023-11-18T05:40:09;13.83;;;12.40;;
20423;SDS011;10371;49.042;8.002;2023-11-18T05:41:11;12.60;;;11.47;;
20423;SDS011;10371;49.042;8.002;2023-11-18T05:42:16;12.40;;;11.30;;
20423;SDS011;10371;49.042;8.002;2023-11-18T05:43:17;12.30;;;11.03;;
20423;SDS011;10371;49.042;8.002;2023-11-18T05:44:19;13.53;;;12.00;;
20423;SDS011;10371;49.042;8.002;2023-11-18T05:45:21;13.27;;;12.00;;
20423;SDS011;10371;49.042;8.002;2023-11-18T05:46:41;13.33;;;12.10;;
20423;SDS011;10371;49.042;8.002;2023-11-18T05:47:43;13.40;;;12.10;;
20423;SDS011;10371;49.042;8.002;2023-11-18T05:48:44;13.37;;;12.17;;
20423;SDS011;10371;49.042;8.002;2023-11-18T05:49:44;13.60;;;12.30;;
20423;SDS011;10371;49.042;8.002;2023-11-18T05:50:44;12.70;;;11.60;;
20423;SDS011;10371;49.042;8.002;2023-11-18T05:51:45;12.87;;;11.60;;
20423;SDS011;10371;49.042;8.002;2023-11-18T05:52:45;13.13;;;11.93;;
20423;SDS011;10371;49.042;8.002;2023-11-18T05:53:45;12.10;;;10.97;;
20423;SDS011;10371;49.042;8.002;2023-11-18T05:54:46;12.33;;;11.03;;
20423;SDS011;10371;49.042;8.002;2023-11-18T05:55:49;12.63;;;11.43;;
20423;SDS011;10371;49.042;8.002;2023-11-18T05:56:50;13.00;;;11.80;;
20423;SDS011;10371;49.042;8.002;2023-11-18T05:57:51;12.90;;;11.60;;
20423;SDS011;10371;49.042;8.002;2023-11-18T05:58:51;13.10;;;11.90;;
20423;SDS011;10371;49.042;8.002;2023-11-18T05:59:55;9.60;;;8.67;;
20423;SDS011;10371;49.042;8.002;2023-11-18T06:00:55;12.77;;;11.47;;
20423;SDS011;10371;49.042;8.002;2023-11-18T06:01:55;12.70;;;11.50;;
20423;SDS011;10371;49.042;8.002;2023-11-18T06:02:56;12.23;;;11.03;;
20423;SDS011;10371;49.042;8.002;2023-11-18T06:03:57;11.50;;;10.47;;
20423;SDS011;10371;49.042;8.002;2023-11-18T06:04:57;12.93;;;11.13;;